createdAt,value
2022-11-24T00:00:34.257Z,0.00
2022-11-24T00:01:34.246Z,0.00
2022-11-24T00:02:34.325Z,0.00
2022-11-24T00:03:34.287Z,0.00
2022-11-24T00:04:34.473Z,0.00
2022-11-24T00:05:34.207Z,0.00
2022-11-24T00:06:34.236Z,0.00
2022-11-24T00:07:34.226Z,0.00
2022-11-24T00:08:34.199Z,0.00
2022-11-24T00:09:34.157Z,0.00
2022-11-24T00:10:34.278Z,0.00
2022-11-24T00:11:34.167Z,0.00
2022-11-24T00:12:34.280Z,0.00
2022-11-24T00:13:34.156Z,0.00
2022-11-24T00:14:34.312Z,0.00
2022-11-24T00:15:34.199Z,0.00
2022-11-24T00:16:34.290Z,0.00
2022-11-24T00:17:34.120Z,0.00
2022-11-24T00:18:34.117Z,0.00
2022-11-24T00:19:34.120Z,0.00
2022-11-24T00:20:34.160Z,0.00
2022-11-24T00:21:34.122Z,0.00
2022-11-24T00:22:34.156Z,0.00
2022-11-24T00:23:34.088Z,0.00
2022-11-24T00:24:34.312Z,0.00
2022-11-24T00:25:34.087Z,0.00
2022-11-24T00:26:34.081Z,0.00
2022-11-24T00:27:34.079Z,0.00
2022-11-24T00:28:34.159Z,0.00
2022-11-24T00:29:34.046Z,0.00
2022-11-24T00:30:34.119Z,0.00
2022-11-24T00:31:34.200Z,0.00
2022-11-24T00:32:34.042Z,0.00
2022-11-24T00:33:34.000Z,0.00
2022-11-24T00:34:34.291Z,0.00
2022-11-24T00:35:33.999Z,0.00
2022-11-24T00:36:34.036Z,0.00
2022-11-24T00:37:33.955Z,0.00
2022-11-24T00:38:34.000Z,0.00
2022-11-24T00:39:33.955Z,0.00
2022-11-24T00:40:35.171Z,0.00
2022-11-24T00:41:33.958Z,0.00
2022-11-24T00:42:33.955Z,0.00
2022-11-24T00:43:33.919Z,0.00
2022-11-24T00:44:34.080Z,0.00
2022-11-24T00:45:33.941Z,0.00
2022-11-24T00:46:34.360Z,0.00
2022-11-24T00:47:33.916Z,0.00
2022-11-24T00:48:33.917Z,0.00
2022-11-24T00:49:33.878Z,0.00
2022-11-24T00:50:33.880Z,0.00
2022-11-24T00:51:33.887Z,0.00
2022-11-24T00:52:33.959Z,0.00
2022-11-24T00:53:33.880Z,0.00
2022-11-24T00:54:34.224Z,0.00
2022-11-24T00:55:33.835Z,0.00
2022-11-24T00:56:33.838Z,0.00
2022-11-24T00:57:33.838Z,0.00
2022-11-24T00:58:33.918Z,0.00
2022-11-24T00:59:33.799Z,0.00
2022-11-24T01:00:33.841Z,0.00
2022-11-24T01:01:33.889Z,0.00
2022-11-24T01:02:33.818Z,0.00
2022-11-24T01:03:33.800Z,0.00
2022-11-24T01:04:34.060Z,0.00
2022-11-24T01:05:33.799Z,0.00
2022-11-24T01:06:33.759Z,0.00
2022-11-24T01:07:33.811Z,0.00
2022-11-24T01:08:33.756Z,0.00
2022-11-24T01:09:33.756Z,0.00
2022-11-24T01:10:33.838Z,0.00
2022-11-24T01:11:34.995Z,0.00
2022-11-24T01:12:33.729Z,0.00
2022-11-24T01:13:33.720Z,0.00
2022-11-24T01:14:33.960Z,0.00
2022-11-24T01:15:33.757Z,0.00
2022-11-24T01:16:33.756Z,0.00
2022-11-24T01:17:33.687Z,0.00
2022-11-24T01:18:33.675Z,0.00
2022-11-24T01:19:33.679Z,0.00
2022-11-24T01:20:33.765Z,0.00
2022-11-24T01:21:33.640Z,0.00
2022-11-24T01:22:33.720Z,0.00
2022-11-24T01:23:33.640Z,0.00
2022-11-24T01:24:33.954Z,0.00
2022-11-24T01:25:33.608Z,0.00
2022-11-24T01:26:33.647Z,0.00
2022-11-24T01:27:33.596Z,0.00
2022-11-24T01:28:33.677Z,0.00
2022-11-24T01:29:33.601Z,0.00
2022-11-24T01:30:33.641Z,0.00
2022-11-24T01:31:33.560Z,0.00
2022-11-24T01:32:33.555Z,0.00
2022-11-24T01:33:33.568Z,0.00
2022-11-24T01:34:33.850Z,0.00
2022-11-24T01:35:33.560Z,0.00
2022-11-24T01:36:33.560Z,0.00
2022-11-24T01:37:33.523Z,0.00
2022-11-24T01:38:33.559Z,0.00
2022-11-24T01:39:33.635Z,0.00
2022-11-24T01:40:33.596Z,0.00
2022-11-24T01:41:33.485Z,0.00
2022-11-24T01:42:33.517Z,0.00
2022-11-24T01:43:33.476Z,0.00
2022-11-24T01:44:33.774Z,0.00
2022-11-24T01:45:33.475Z,0.00
2022-11-24T01:46:33.855Z,0.00
2022-11-24T01:47:33.526Z,0.00
2022-11-24T01:48:33.441Z,0.00
2022-11-24T01:49:33.445Z,0.00
2022-11-24T01:50:33.439Z,0.00
2022-11-24T01:51:33.437Z,0.00
2022-11-24T01:52:33.515Z,0.00
2022-11-24T01:53:33.438Z,0.00
2022-11-24T01:54:33.768Z,0.00
2022-11-24T01:55:33.401Z,0.00
2022-11-24T01:56:33.403Z,0.00
2022-11-24T01:57:33.369Z,0.00
2022-11-24T01:58:33.479Z,0.00
2022-11-24T01:59:33.366Z,0.00
2022-11-24T02:00:33.358Z,0.00
2022-11-24T02:01:33.420Z,0.00
2022-11-24T02:02:33.396Z,0.00
2022-11-24T02:03:33.447Z,0.00
2022-11-24T02:04:33.651Z,0.00
2022-11-24T02:05:33.333Z,0.00
2022-11-24T02:06:33.320Z,0.00
2022-11-24T02:07:33.397Z,0.00
2022-11-24T02:08:33.327Z,0.00
2022-11-24T02:09:33.324Z,0.00
2022-11-24T02:10:33.367Z,0.00
2022-11-24T02:11:33.315Z,0.00
2022-11-24T02:12:33.280Z,0.00
2022-11-24T02:13:33.279Z,0.00
2022-11-24T02:14:33.522Z,0.00
2022-11-24T02:15:33.252Z,0.00
2022-11-24T02:16:33.310Z,0.00
2022-11-24T02:17:33.235Z,0.00
2022-11-24T02:18:33.239Z,0.00
2022-11-24T02:19:33.198Z,0.00
2022-11-24T02:20:33.195Z,0.00
2022-11-24T02:21:33.199Z,0.00
2022-11-24T02:22:33.278Z,0.00
2022-11-24T02:23:33.200Z,0.00
2022-11-24T02:24:33.294Z,0.00
2022-11-24T02:25:33.196Z,0.00
2022-11-24T02:26:33.155Z,0.00
2022-11-24T02:27:33.159Z,0.00
2022-11-24T02:28:33.235Z,0.00
2022-11-24T02:29:33.155Z,0.00
2022-11-24T02:30:33.158Z,0.00
2022-11-24T02:31:33.216Z,0.00
2022-11-24T02:32:33.115Z,0.00
2022-11-24T02:33:33.127Z,0.00
2022-11-24T02:34:33.378Z,0.00
2022-11-24T02:35:33.115Z,0.00
2022-11-24T02:36:33.162Z,0.00
2022-11-24T02:37:33.076Z,0.00
2022-11-24T02:38:33.083Z,0.00
2022-11-24T02:39:33.079Z,0.00
2022-11-24T02:40:33.162Z,0.00
2022-11-24T02:41:33.079Z,0.00
2022-11-24T02:42:33.042Z,0.00
2022-11-24T02:43:33.038Z,0.00
2022-11-24T02:44:33.361Z,0.00
2022-11-24T02:45:33.046Z,0.00
2022-11-24T02:46:33.180Z,0.00
2022-11-24T02:47:33.036Z,0.00
2022-11-24T02:48:32.999Z,0.00
2022-11-24T02:49:32.999Z,0.00
2022-11-24T02:50:33.014Z,0.00
2022-11-24T02:51:33.006Z,0.00
2022-11-24T02:52:33.411Z,0.00
2022-11-24T02:53:32.956Z,0.00
2022-11-24T02:54:33.254Z,0.00
2022-11-24T02:55:32.966Z,0.00
2022-11-24T02:56:32.956Z,0.00
2022-11-24T02:57:32.967Z,0.00
2022-11-24T02:58:33.044Z,0.00
2022-11-24T02:59:32.916Z,0.00
2022-11-24T03:00:32.919Z,0.00
2022-11-24T03:01:33.007Z,0.00
2022-11-24T03:02:32.965Z,0.00
2022-11-24T03:03:32.918Z,0.00
2022-11-24T03:04:33.209Z,0.00
2022-11-24T03:05:32.887Z,0.00
2022-11-24T03:06:32.884Z,0.00
2022-11-24T03:07:32.933Z,0.00
2022-11-24T03:08:32.880Z,0.00
2022-11-24T03:09:32.887Z,0.00
2022-11-24T03:10:32.918Z,0.00
2022-11-24T03:11:32.837Z,0.00
2022-11-24T03:12:32.847Z,0.00
2022-11-24T03:13:32.836Z,0.00
2022-11-24T03:14:33.112Z,0.00
2022-11-24T03:15:32.861Z,0.00
2022-11-24T03:16:32.876Z,0.00
2022-11-24T03:17:32.796Z,0.00
2022-11-24T03:18:32.796Z,0.00
2022-11-24T03:19:32.796Z,0.00
2022-11-24T03:20:32.998Z,0.00
2022-11-24T03:21:32.761Z,0.00
2022-11-24T03:22:32.836Z,0.00
2022-11-24T03:23:32.764Z,0.00
2022-11-24T03:24:32.967Z,0.00
2022-11-24T03:25:32.997Z,0.00
2022-11-24T03:26:32.716Z,0.00
2022-11-24T03:27:32.724Z,0.00
2022-11-24T03:28:45.554Z,0.00
2022-11-24T03:29:32.725Z,0.00
2022-11-24T03:30:32.726Z,0.00
2022-11-24T03:31:32.730Z,0.00
2022-11-24T03:32:32.686Z,0.00
2022-11-24T03:33:38.287Z,0.00
2022-11-24T03:34:33.154Z,0.00
2022-11-24T03:35:32.676Z,0.00
2022-11-24T03:36:32.681Z,0.00
2022-11-24T03:37:32.638Z,0.00
2022-11-24T03:38:32.640Z,0.00
2022-11-24T03:39:32.640Z,0.00
2022-11-24T03:40:32.716Z,0.00
2022-11-24T03:41:32.637Z,0.00
2022-11-24T03:42:32.600Z,0.00
2022-11-24T03:43:32.597Z,0.00
2022-11-24T03:44:32.963Z,0.00
2022-11-24T03:45:48.051Z,0.00
2022-11-24T03:46:33.812Z,0.00
2022-11-24T03:47:32.560Z,0.00
2022-11-24T03:48:32.557Z,0.00
2022-11-24T03:49:32.879Z,0.00
2022-11-24T03:50:32.563Z,0.00
2022-11-24T03:51:32.559Z,0.00
2022-11-24T03:52:32.601Z,0.00
2022-11-24T03:53:32.526Z,0.00
2022-11-24T03:54:32.757Z,0.00
2022-11-24T03:55:32.521Z,0.00
2022-11-24T03:56:32.527Z,0.00
2022-11-24T03:57:32.481Z,0.00
2022-11-24T03:58:32.849Z,0.00
2022-11-24T03:59:32.476Z,0.00
2022-11-24T04:00:32.487Z,0.00
2022-11-24T04:01:32.523Z,0.00
2022-11-24T04:02:32.514Z,0.00
2022-11-24T04:03:32.444Z,0.00
2022-11-24T04:04:32.695Z,0.00
2022-11-24T04:05:32.441Z,0.00
2022-11-24T04:06:32.455Z,0.00
2022-11-24T04:07:32.466Z,0.00
2022-11-24T04:08:46.163Z,0.00
2022-11-24T04:09:32.401Z,0.00
2022-11-24T04:10:32.488Z,0.00
2022-11-24T04:11:32.400Z,0.00
2022-11-24T04:12:32.359Z,0.00
2022-11-24T04:13:32.358Z,0.00
2022-11-24T04:14:32.703Z,0.00
2022-11-24T04:15:32.363Z,0.00
2022-11-24T04:16:32.499Z,0.00
2022-11-24T04:17:32.361Z,0.00
2022-11-24T04:18:32.329Z,0.00
2022-11-24T04:19:32.319Z,0.00
2022-11-24T04:20:32.321Z,0.00
2022-11-24T04:21:32.321Z,0.00
2022-11-24T04:22:32.365Z,0.00
2022-11-24T04:23:32.280Z,0.00
2022-11-24T04:24:32.575Z,0.00
2022-11-24T04:25:32.281Z,0.00
2022-11-24T04:26:32.311Z,0.00
2022-11-24T04:27:32.281Z,0.00
2022-11-24T04:28:32.360Z,0.00
2022-11-24T04:29:32.241Z,0.00
2022-11-24T04:30:32.242Z,0.00
2022-11-24T04:31:32.276Z,0.00
2022-11-24T04:32:32.241Z,0.00
2022-11-24T04:33:32.241Z,0.00
2022-11-24T04:34:32.547Z,0.00
2022-11-24T04:35:32.199Z,0.00
2022-11-24T04:36:32.201Z,0.00
2022-11-24T04:37:32.203Z,0.00
2022-11-24T04:39:23.082Z,0.00
2022-11-24T04:39:33.319Z,0.00
2022-11-24T04:40:32.161Z,0.00
2022-11-24T04:41:32.164Z,0.00
2022-11-24T04:42:32.157Z,0.00
2022-11-24T04:43:36.379Z,0.00
2022-11-24T04:44:33.304Z,0.00
2022-11-24T04:45:32.200Z,0.00
2022-11-24T04:46:32.154Z,0.00
2022-11-24T04:47:32.120Z,0.00
2022-11-24T04:48:32.117Z,0.00
2022-11-24T04:49:32.118Z,0.00
2022-11-24T04:50:32.088Z,0.00
2022-11-24T04:51:32.162Z,0.00
2022-11-24T04:52:32.086Z,0.00
2022-11-24T04:53:32.090Z,0.00
2022-11-24T04:54:32.379Z,0.00
2022-11-24T04:55:32.049Z,0.00
2022-11-24T04:56:32.041Z,0.00
2022-11-24T04:57:32.081Z,0.00
2022-11-24T04:58:32.037Z,0.00
2022-11-24T04:59:57.294Z,0.00
2022-11-24T05:00:33.001Z,0.00
2022-11-24T05:01:32.081Z,0.00
2022-11-24T05:02:32.000Z,0.00
2022-11-24T05:03:32.119Z,0.00
2022-11-24T05:04:32.304Z,0.00
2022-11-24T05:05:31.960Z,0.00
2022-11-24T05:06:32.000Z,0.00
2022-11-24T05:07:32.000Z,0.00
2022-11-24T05:08:31.962Z,0.00
2022-11-24T05:09:54.941Z,0.00
2022-11-24T05:10:32.961Z,0.00
2022-11-24T05:11:31.923Z,0.00
2022-11-24T05:12:31.925Z,0.00
2022-11-24T05:13:31.925Z,0.00
2022-11-24T05:14:32.189Z,0.00
2022-11-24T05:15:32.480Z,0.00
2022-11-24T05:16:31.922Z,0.00
2022-11-24T05:17:31.887Z,0.00
2022-11-24T05:18:31.883Z,0.00
2022-11-24T05:19:32.545Z,0.00
2022-11-24T05:20:31.885Z,0.00
2022-11-24T05:21:31.921Z,0.00
2022-11-24T05:22:31.837Z,0.00
2022-11-24T05:23:31.840Z,0.00
2022-11-24T05:24:32.347Z,0.00
2022-11-24T05:25:31.849Z,0.00
2022-11-24T05:26:52.847Z,0.00
2022-11-24T05:27:31.809Z,0.00
2022-11-24T05:28:31.803Z,0.00
2022-11-24T05:29:31.800Z,0.00
2022-11-24T05:30:31.802Z,0.00
2022-11-24T05:31:31.835Z,0.00
2022-11-24T05:32:31.847Z,0.00
2022-11-24T05:33:31.768Z,0.00
2022-11-24T05:34:31.990Z,0.00
2022-11-24T05:35:31.721Z,0.00
2022-11-24T05:36:31.768Z,0.00
2022-11-24T05:37:31.727Z,0.00
2022-11-24T05:38:31.799Z,0.00
2022-11-24T05:39:31.739Z,0.00
2022-11-24T05:40:31.727Z,0.00
2022-11-24T05:41:31.682Z,0.00
2022-11-24T05:42:31.719Z,0.00
2022-11-24T05:43:31.659Z,0.00
2022-11-24T05:44:32.171Z,0.00
2022-11-24T05:45:31.680Z,0.00
2022-11-24T05:46:31.736Z,0.00
2022-11-24T05:47:31.681Z,0.00
2022-11-24T05:48:31.640Z,0.00
2022-11-24T05:49:31.641Z,0.00
2022-11-24T05:50:31.720Z,0.00
2022-11-24T05:51:31.620Z,0.00
2022-11-24T05:52:31.641Z,0.00
2022-11-24T05:53:31.600Z,0.00
2022-11-24T05:54:31.825Z,0.00
2022-11-24T05:55:31.607Z,0.00
2022-11-24T05:56:31.676Z,0.00
2022-11-24T05:57:31.602Z,0.00
2022-11-24T05:58:31.609Z,0.00
2022-11-24T05:59:31.561Z,0.00
2022-11-24T06:00:31.568Z,0.00
2022-11-24T06:01:31.585Z,0.00
2022-11-24T06:02:31.734Z,0.00
2022-11-24T06:03:31.520Z,0.00
2022-11-24T06:04:31.645Z,0.00
2022-11-24T06:05:31.528Z,0.00
2022-11-24T06:06:31.524Z,0.00
2022-11-24T06:07:31.566Z,0.00
2022-11-24T06:08:31.836Z,0.00
2022-11-24T06:09:31.482Z,0.00
2022-11-24T06:10:31.481Z,0.00
2022-11-24T06:11:31.688Z,0.00
2022-11-24T06:12:31.481Z,0.00
2022-11-24T06:13:31.490Z,0.00
2022-11-24T06:14:31.714Z,0.00
2022-11-24T06:15:31.481Z,0.00
2022-11-24T06:16:31.508Z,0.00
2022-11-24T06:17:31.440Z,0.00
2022-11-24T06:18:31.439Z,0.00
2022-11-24T06:19:31.440Z,0.00
2022-11-24T06:20:33.101Z,0.00
2022-11-24T06:21:31.436Z,0.00
2022-11-24T06:22:31.639Z,0.00
2022-11-24T06:23:31.400Z,0.00
2022-11-24T06:24:31.468Z,0.00
2022-11-24T06:25:31.363Z,0.00
2022-11-24T06:26:31.490Z,0.00
2022-11-24T06:27:31.560Z,0.00
2022-11-24T06:28:31.360Z,0.00
2022-11-24T06:29:31.360Z,0.00
2022-11-24T06:30:31.356Z,0.00
2022-11-24T06:31:31.361Z,0.00
2022-11-24T06:32:31.447Z,0.00
2022-11-24T06:33:31.320Z,0.00
2022-11-24T06:34:31.505Z,0.00
2022-11-24T06:35:31.358Z,0.00
2022-11-24T06:36:31.277Z,0.00
2022-11-24T06:37:31.280Z,0.00
2022-11-24T06:38:31.328Z,0.00
2022-11-24T06:39:31.359Z,0.00
2022-11-24T06:40:31.355Z,0.00
2022-11-24T06:41:31.253Z,0.00
2022-11-24T06:42:31.455Z,0.00
2022-11-24T06:43:31.255Z,0.00
2022-11-24T06:44:31.561Z,0.00
2022-11-24T06:45:31.291Z,0.00
2022-11-24T06:46:31.221Z,0.00
2022-11-24T06:47:31.216Z,0.00
2022-11-24T06:48:31.262Z,0.00
2022-11-24T06:49:31.217Z,0.00
2022-11-24T06:50:33.731Z,0.00
2022-11-24T06:51:31.175Z,0.00
2022-11-24T06:52:31.252Z,0.00
2022-11-24T06:53:31.176Z,0.00
2022-11-24T06:54:33.361Z,0.00
2022-11-24T06:55:31.135Z,0.00
2022-11-24T06:56:31.217Z,0.00
2022-11-24T06:57:31.217Z,0.00
2022-11-24T06:58:31.181Z,0.00
2022-11-24T06:59:31.135Z,0.00
2022-11-24T07:00:31.142Z,0.00
2022-11-24T07:01:31.379Z,0.00
2022-11-24T07:02:57.515Z,0.00
2022-11-24T07:03:32.137Z,0.00
2022-11-24T07:04:31.097Z,0.00
2022-11-24T07:05:31.090Z,0.00
2022-11-24T07:06:31.095Z,0.00
2022-11-24T07:07:31.167Z,0.00
2022-11-24T07:08:31.142Z,0.00
2022-11-24T07:09:31.062Z,0.00
2022-11-24T07:10:31.055Z,0.00
2022-11-24T07:11:31.056Z,0.00
2022-11-24T07:12:31.055Z,0.00
2022-11-24T07:13:31.061Z,0.00
2022-11-24T07:14:31.329Z,0.00
2022-11-24T07:15:31.015Z,0.00
2022-11-24T07:16:31.060Z,0.00
2022-11-24T07:17:31.014Z,0.00
2022-11-24T07:18:30.972Z,0.00
2022-11-24T07:19:31.056Z,0.00
2022-11-24T07:20:31.083Z,0.00
2022-11-24T07:21:31.019Z,0.00
2022-11-24T07:22:30.976Z,0.00
2022-11-24T07:23:30.941Z,0.00
2022-11-24T07:24:30.932Z,0.00
2022-11-24T07:25:30.980Z,0.00
2022-11-24T07:26:31.012Z,0.00
2022-11-24T07:27:30.950Z,0.00
2022-11-24T07:28:30.944Z,0.00
2022-11-24T07:29:31.023Z,0.00
2022-11-24T07:30:30.934Z,0.00
2022-11-24T07:31:31.048Z,0.00
2022-11-24T07:32:30.971Z,0.00
2022-11-24T07:33:31.109Z,0.00
2022-11-24T07:34:30.861Z,0.00
2022-11-24T07:35:30.978Z,0.00
2022-11-24T07:36:30.900Z,0.00
2022-11-24T07:37:31.823Z,0.00
2022-11-24T07:38:31.062Z,0.00
2022-11-24T07:39:30.839Z,0.00
2022-11-24T07:40:30.904Z,0.00
2022-11-24T07:41:30.932Z,0.00
2022-11-24T07:42:31.039Z,0.00
2022-11-24T07:43:30.821Z,0.00
2022-11-24T07:44:31.036Z,0.00
2022-11-24T07:45:30.980Z,0.00
2022-11-24T07:46:30.851Z,0.00
2022-11-24T07:47:30.902Z,0.00
2022-11-24T07:48:30.976Z,0.00
2022-11-24T07:49:30.934Z,0.00
2022-11-24T07:50:31.015Z,0.00
2022-11-24T07:51:30.937Z,0.00
2022-11-24T07:52:30.812Z,0.00
2022-11-24T07:53:30.784Z,0.00
2022-11-24T07:54:30.695Z,0.00
2022-11-24T07:55:30.936Z,0.00
2022-11-24T07:56:31.135Z,0.00
2022-11-24T07:57:30.857Z,0.00
2022-11-24T07:58:33.049Z,0.00
2022-11-24T07:59:30.705Z,0.00
2022-11-24T08:00:30.652Z,0.00
2022-11-24T08:01:30.978Z,0.00
2022-11-24T08:02:30.935Z,0.00
2022-11-24T08:03:30.676Z,0.00
2022-11-24T08:04:30.731Z,0.00
2022-11-24T08:05:30.903Z,0.00
2022-11-24T08:06:38.452Z,0.00
2022-11-24T08:07:32.030Z,0.00
2022-11-24T08:08:31.976Z,0.00
2022-11-24T08:09:30.896Z,0.00
2022-11-24T08:10:30.737Z,0.00
2022-11-24T08:11:30.735Z,0.00
2022-11-24T08:12:30.775Z,0.00
2022-11-24T08:13:30.942Z,0.00
2022-11-24T08:14:30.657Z,0.00
2022-11-24T08:15:30.656Z,0.00
2022-11-24T08:16:30.839Z,0.00
2022-11-24T08:17:30.897Z,0.00
2022-11-24T08:18:30.655Z,0.00
2022-11-24T08:19:31.136Z,0.00
2022-11-24T08:20:30.863Z,0.00
2022-11-24T08:21:30.664Z,0.00
2022-11-24T08:22:30.744Z,0.00
2022-11-24T08:23:30.615Z,0.00
2022-11-24T08:24:30.616Z,0.00
2022-11-24T08:25:30.823Z,0.00
2022-11-24T08:26:30.692Z,0.00
2022-11-24T08:27:30.616Z,0.00
2022-11-24T08:28:30.615Z,0.00
2022-11-24T08:29:31.698Z,0.00
2022-11-24T08:30:30.618Z,0.00
2022-11-24T08:31:30.932Z,0.00
2022-11-24T08:32:30.493Z,0.00
2022-11-24T08:33:30.706Z,0.00
2022-11-24T08:34:30.664Z,0.00
2022-11-24T08:35:30.455Z,0.00
2022-11-24T08:36:30.544Z,0.00
2022-11-24T08:37:30.784Z,0.00
2022-11-24T08:38:30.540Z,0.00
2022-11-24T08:39:30.456Z,0.00
2022-11-24T08:40:30.691Z,0.00
2022-11-24T08:41:30.500Z,0.00
2022-11-24T08:42:30.544Z,0.00
2022-11-24T08:43:33.859Z,0.00
2022-11-24T08:44:30.656Z,0.00
2022-11-24T08:45:30.864Z,0.00
2022-11-24T08:46:30.632Z,0.00
2022-11-24T08:47:30.576Z,0.00
2022-11-24T08:48:30.458Z,0.00
2022-11-24T08:49:30.937Z,0.00
2022-11-24T08:50:30.496Z,0.00
2022-11-24T08:51:30.539Z,5.62
2022-11-24T08:52:30.463Z,5.62
2022-11-24T08:53:30.415Z,5.62
2022-11-24T08:54:30.333Z,11.25
2022-11-24T08:55:30.537Z,11.25
2022-11-24T08:56:30.381Z,11.25
2022-11-24T08:57:31.493Z,11.25
2022-11-24T08:58:30.386Z,16.88
2022-11-24T08:59:30.573Z,16.88
2022-11-24T09:00:30.254Z,16.88
2022-11-24T09:01:30.465Z,22.50
2022-11-24T09:02:30.385Z,39.38
2022-11-24T09:03:30.415Z,61.88
2022-11-24T09:04:30.246Z,50.62
2022-11-24T09:05:51.197Z,28.12
2022-11-24T09:06:31.417Z,33.75
2022-11-24T09:07:30.388Z,50.62
2022-11-24T09:08:30.236Z,78.75
2022-11-24T09:09:30.178Z,84.38
2022-11-24T09:10:30.214Z,78.75
2022-11-24T09:11:30.296Z,84.38
2022-11-24T09:12:30.297Z,73.12
2022-11-24T09:13:30.132Z,90.00
2022-11-24T09:14:30.418Z,56.25
2022-11-24T09:15:30.303Z,84.38
2022-11-24T09:16:30.273Z,73.12
2022-11-24T09:17:30.080Z,56.25
2022-11-24T09:18:30.643Z,90.00
2022-11-24T09:19:30.063Z,78.75
2022-11-24T09:20:30.031Z,22.50
2022-11-24T09:21:30.076Z,16.88
2022-11-24T09:22:30.051Z,16.88
2022-11-24T09:23:30.044Z,16.88
2022-11-24T09:24:30.364Z,11.25
2022-11-24T09:25:30.029Z,11.25
2022-11-24T09:26:30.036Z,11.25
2022-11-24T09:27:30.004Z,11.25
2022-11-24T09:28:30.011Z,5.62
2022-11-24T09:29:29.960Z,5.62
2022-11-24T09:30:30.121Z,5.62
2022-11-24T09:31:30.033Z,5.62
2022-11-24T09:32:29.942Z,5.62
2022-11-24T09:33:29.963Z,5.62
2022-11-24T09:34:29.920Z,5.62
2022-11-24T09:35:29.937Z,5.62
2022-11-24T09:36:30.242Z,11.25
2022-11-24T09:37:32.887Z,11.25
2022-11-24T09:38:30.038Z,11.25
2022-11-24T09:39:30.120Z,11.25
2022-11-24T09:40:30.150Z,11.25
2022-11-24T09:41:30.110Z,11.25
2022-11-24T09:42:30.310Z,5.62
2022-11-24T09:43:30.114Z,11.25
2022-11-24T09:44:30.032Z,11.25
2022-11-24T09:45:57.004Z,16.88
2022-11-24T09:46:30.940Z,16.88
2022-11-24T09:47:29.904Z,22.50
2022-11-24T09:48:29.995Z,22.50
2022-11-24T09:49:30.085Z,33.75
2022-11-24T09:50:29.993Z,39.38
2022-11-24T09:51:30.033Z,45.00
2022-11-24T09:52:30.207Z,50.62
2022-11-24T09:53:30.113Z,50.62
2022-11-24T09:54:30.233Z,95.62
2022-11-24T09:55:30.035Z,123.75
2022-11-24T09:56:29.950Z,112.50
2022-11-24T09:57:34.287Z,50.62
2022-11-24T09:58:31.034Z,140.62
2022-11-24T09:59:29.923Z,73.12
2022-11-24T10:00:30.078Z,50.62
2022-11-24T10:01:29.993Z,33.75
2022-11-24T10:02:29.871Z,16.88
2022-11-24T10:03:30.554Z,11.25
2022-11-24T10:04:30.125Z,11.25
2022-11-24T10:05:29.910Z,11.25
2022-11-24T10:06:30.089Z,11.25
2022-11-24T10:07:30.004Z,11.25
2022-11-24T10:08:30.080Z,11.25
2022-11-24T10:09:29.843Z,16.88
2022-11-24T10:10:29.882Z,16.88
2022-11-24T10:11:29.835Z,33.75
2022-11-24T10:12:30.041Z,16.88
2022-11-24T10:13:29.992Z,16.88
2022-11-24T10:14:29.929Z,16.88
2022-11-24T10:15:29.843Z,16.88
2022-11-24T10:16:30.031Z,22.50
2022-11-24T10:17:29.914Z,22.50
2022-11-24T10:18:30.199Z,33.75
2022-11-24T10:19:36.306Z,84.38
2022-11-24T10:20:30.881Z,73.12
2022-11-24T10:21:29.957Z,56.25
2022-11-24T10:22:29.832Z,28.12
2022-11-24T10:23:29.882Z,28.12
2022-11-24T10:24:30.060Z,22.50
2022-11-24T10:25:29.917Z,22.50
2022-11-24T10:26:29.879Z,28.12
2022-11-24T10:27:29.954Z,67.50
2022-11-24T10:28:29.875Z,28.12
2022-11-24T10:29:29.730Z,28.12
2022-11-24T10:30:29.798Z,16.88
2022-11-24T10:31:29.637Z,16.88
2022-11-24T10:32:29.520Z,16.88
2022-11-24T10:33:30.955Z,16.88
2022-11-24T10:34:29.536Z,16.88
2022-11-24T10:35:29.497Z,22.50
2022-11-24T10:36:29.582Z,28.12
2022-11-24T10:37:29.494Z,45.00
2022-11-24T10:38:29.900Z,39.38
2022-11-24T10:39:29.455Z,45.00
2022-11-24T10:41:30.545Z,33.75
2022-11-24T10:42:29.458Z,33.75
2022-11-24T10:43:29.450Z,39.38
2022-11-24T10:44:29.389Z,39.38
2022-11-24T10:45:29.435Z,28.12
2022-11-24T10:46:31.450Z,28.12
2022-11-24T10:47:30.547Z,22.50
2022-11-24T10:48:29.416Z,22.50
2022-11-24T10:49:29.385Z,22.50
2022-11-24T10:50:29.370Z,28.12
2022-11-24T10:51:29.408Z,28.12
2022-11-24T10:52:29.368Z,33.75
2022-11-24T10:53:29.367Z,28.12
2022-11-24T10:54:29.365Z,22.50
2022-11-24T10:55:29.345Z,45.00
2022-11-24T10:56:29.346Z,28.12
2022-11-24T10:57:29.336Z,22.50
2022-11-24T10:58:34.303Z,16.88
2022-11-24T10:59:30.364Z,16.88
2022-11-24T11:00:29.294Z,16.88
2022-11-24T11:01:29.311Z,22.50
2022-11-24T11:02:29.347Z,22.50
2022-11-24T11:03:29.276Z,22.50
2022-11-24T11:04:29.295Z,174.38
2022-11-24T11:05:29.338Z,174.38
2022-11-24T11:06:29.278Z,45.00
2022-11-24T11:07:29.268Z,33.75
2022-11-24T11:08:29.250Z,185.62
2022-11-24T11:09:29.404Z,157.50
2022-11-24T11:10:29.230Z,112.50
2022-11-24T11:11:29.265Z,129.38
2022-11-24T11:12:43.322Z,196.88
2022-11-24T11:13:30.240Z,202.50
2022-11-24T11:14:29.233Z,202.50
2022-11-24T11:15:29.334Z,78.75
2022-11-24T11:16:29.227Z,61.88
2022-11-24T11:17:29.231Z,39.38
2022-11-24T11:18:29.748Z,39.38
2022-11-24T11:20:30.179Z,39.38
2022-11-24T11:21:29.161Z,45.00
2022-11-24T11:22:29.166Z,56.25
2022-11-24T11:23:29.170Z,39.38
2022-11-24T11:24:30.422Z,33.75
2022-11-24T11:25:29.099Z,33.75
2022-11-24T11:26:29.130Z,22.50
2022-11-24T11:27:29.118Z,16.88
2022-11-24T11:28:29.085Z,16.88
2022-11-24T11:31:30.050Z,22.50
2022-11-24T11:34:30.698Z,28.12
2022-11-24T11:35:29.011Z,28.12
2022-11-24T11:36:29.001Z,39.38
2022-11-24T11:37:29.222Z,61.88
2022-11-24T11:38:29.037Z,39.38
2022-11-24T11:39:29.015Z,45.00
2022-11-24T11:40:29.032Z,146.25
2022-11-24T11:41:28.983Z,33.75
2022-11-24T11:43:00.684Z,28.12
2022-11-24T11:43:29.974Z,28.12
2022-11-24T11:44:28.979Z,33.75
2022-11-24T11:45:29.011Z,28.12
2022-11-24T11:46:29.064Z,33.75
2022-11-24T11:47:28.945Z,28.12
2022-11-24T11:48:30.572Z,28.12
2022-11-24T11:49:28.927Z,33.75
2022-11-24T11:50:28.967Z,28.12
2022-11-24T11:51:28.953Z,28.12
2022-11-24T11:52:29.015Z,28.12
2022-11-24T11:53:28.913Z,28.12
2022-11-24T11:54:45.853Z,28.12
2022-11-24T11:55:29.868Z,28.12
2022-11-24T11:56:28.915Z,28.12
2022-11-24T11:57:28.873Z,28.12
2022-11-24T11:58:28.918Z,28.12
2022-11-24T11:59:28.871Z,112.50
2022-11-24T12:00:28.852Z,180.00
2022-11-24T12:01:28.832Z,140.62
2022-11-24T12:02:29.028Z,78.75
2022-11-24T12:03:28.892Z,123.75
2022-11-24T12:04:28.880Z,61.88
2022-11-24T12:05:28.809Z,146.25
2022-11-24T12:06:28.795Z,180.00
2022-11-24T12:07:28.807Z,78.75
2022-11-24T12:08:28.793Z,61.88
2022-11-24T12:09:29.057Z,84.38
2022-11-24T12:10:29.333Z,56.25
2022-11-24T12:11:29.127Z,67.50
2022-11-24T12:12:29.144Z,33.75
2022-11-24T12:13:29.101Z,39.38
2022-11-24T12:14:28.978Z,33.75
2022-11-24T12:15:29.012Z,33.75
2022-11-24T12:16:31.429Z,28.12
2022-11-24T12:17:28.933Z,28.12
2022-11-24T12:18:55.885Z,22.50
2022-11-24T12:19:29.893Z,16.88
2022-11-24T12:20:29.008Z,16.88
2022-11-24T12:21:29.013Z,11.25
2022-11-24T12:22:29.089Z,11.25
2022-11-24T12:23:28.976Z,11.25
2022-11-24T12:24:28.905Z,11.25
2022-11-24T12:25:28.926Z,11.25
2022-11-24T12:26:29.050Z,16.88
2022-11-24T12:27:28.966Z,16.88
2022-11-24T12:28:29.016Z,16.88
2022-11-24T12:29:28.973Z,16.88
2022-11-24T12:30:28.912Z,16.88
2022-11-24T12:31:28.831Z,22.50
2022-11-24T12:32:28.920Z,16.88
2022-11-24T12:33:28.893Z,22.50
2022-11-24T12:34:29.170Z,22.50
2022-11-24T12:35:28.770Z,22.50
2022-11-24T12:36:41.700Z,22.50
2022-11-24T12:37:29.781Z,22.50
2022-11-24T12:38:28.849Z,22.50
2022-11-24T12:39:28.686Z,22.50
2022-11-24T12:40:29.099Z,16.88
2022-11-24T12:41:44.002Z,16.88
2022-11-24T12:42:29.686Z,16.88
2022-11-24T12:43:28.685Z,16.88
2022-11-24T12:44:28.776Z,157.50
2022-11-24T12:45:28.769Z,28.12
2022-11-24T12:46:31.001Z,50.62
2022-11-24T12:47:28.773Z,22.50
2022-11-24T12:48:28.767Z,22.50
2022-11-24T12:49:28.733Z,16.88
2022-11-24T12:50:28.653Z,16.88
2022-11-24T12:51:28.690Z,16.88
2022-11-24T12:52:28.802Z,22.50
2022-11-24T12:53:28.719Z,22.50
2022-11-24T12:54:28.644Z,16.88
2022-11-24T12:55:28.527Z,16.88
2022-11-24T12:56:28.618Z,16.88
2022-11-24T12:57:28.613Z,16.88
2022-11-24T12:58:28.870Z,11.25
2022-11-24T12:59:28.532Z,11.25
2022-11-24T13:00:28.775Z,11.25
2022-11-24T13:01:28.684Z,11.25
2022-11-24T13:02:28.778Z,11.25
2022-11-24T13:03:28.693Z,16.88
2022-11-24T13:04:28.762Z,16.88
2022-11-24T13:05:28.604Z,16.88
2022-11-24T13:06:28.692Z,16.88
2022-11-24T13:07:28.600Z,16.88
2022-11-24T13:08:28.660Z,22.50
2022-11-24T13:09:28.641Z,22.50
2022-11-24T13:10:58.461Z,22.50
2022-11-24T13:11:29.645Z,22.50
2022-11-24T13:12:28.536Z,22.50
2022-11-24T13:13:28.410Z,22.50
2022-11-24T13:14:28.641Z,22.50
2022-11-24T13:15:45.591Z,22.50